Time,TemperatureF,DewpointF,PressureIn,WindDirection,WindDirectionDegrees,WindSpeedMPH,WindSpeedGustMPH,Humidity,HourlyPrecipIn,Conditions,Clouds,dailyrainin,SoftwareType,DateUTC
2013-02-09 00:01:00,43.8,39.0,29.98,NNE,19,5.0,11.0,83,0.00,,,0.00,weatherlink.com 1.10,2013-02-08 23:01:00,
2013-02-09 00:16:00,44.0,39.0,29.98,NE,56,4.0,8.0,82,0.00,,,0.00,weatherlink.com 1.10,2013-02-08 23:16:00,
2013-02-09 00:31:00,44.1,39.0,29.99,NE,39,4.0,9.0,81,0.00,,,0.00,weatherlink.com 1.10,2013-02-08 23:31:00,
2013-02-09 00:46:00,44.3,39.0,30.00,NNE,25,2.0,6.0,80,0.00,,,0.00,weatherlink.com 1.10,2013-02-08 23:46:00,
2013-02-09 01:01:00,44.2,38.0,30.00,NE,56,2.0,5.0,80,0.00,,,0.00,weatherlink.com 1.10,2013-02-09 00:01:00,
2013-02-09 01:16:00,44.4,38.0,30.00,NE,43,2.0,7.0,77,0.00,,,0.00,weatherlink.com 1.10,2013-02-09 00:16:00,
2013-02-09 01:31:00,44.6,36.0,30.00,North,11,4.0,10.0,73,0.00,,,0.00,weatherlink.com 1.10,2013-02-09 00:31:00,
2013-02-09 01:46:00,44.5,36.0,30.00,NE,47,6.0,10.0,71,0.00,,,0.00,weatherlink.com 1.10,2013-02-09 00:46:00,
2013-02-09 02:01:00,44.4,35.0,30.00,NE,44,5.0,10.0,69,0.00,,,0.00,weatherlink.com 1.10,2013-02-09 01:01:00,
2013-02-09 02:16:00,44.7,34.0,30.00,NNW,345,8.0,11.0,67,0.00,,,0.00,weatherlink.com 1.10,2013-02-09 01:16:00,
2013-02-09 02:31:00,44.7,34.0,30.01,North,10,9.0,13.0,67,0.00,,,0.00,weatherlink.com 1.10,2013-02-09 01:31:00,
2013-02-09 02:46:00,44.8,34.0,30.02,NNE,32,8.0,14.0,66,0.00,,,0.00,weatherlink.com 1.10,2013-02-09 01:46:00,
2013-02-09 03:01:00,44.7,33.0,30.02,NE,48,11.0,17.0,63,0.00,,,0.00,weatherlink.com 1.10,2013-02-09 02:01:00,
2013-02-09 03:16:00,44.6,32.0,30.02,NNE,19,10.0,15.0,61,0.00,,,0.00,weatherlink.com 1.10,2013-02-09 02:16:00,
2013-02-09 03:31:00,44.7,30.0,30.02,NNE,32,13.0,18.0,57,0.00,,,0.00,weatherlink.com 1.10,2013-02-09 02:31:00,
2013-02-09 03:46:00,44.7,30.0,30.02,NNE,16,11.0,17.0,57,0.00,,,0.00,weatherlink.com 1.10,2013-02-09 02:46:00,
2013-02-09 04:01:00,44.5,30.0,30.01,ENE,57,20.0,20.0,57,0.00,,,0.00,weatherlink.com 1.10,2013-02-09 03:01:00,
2013-02-09 04:16:00,44.5,27.0,30.02,NNE,32,15.0,22.0,51,0.00,,,0.00,weatherlink.com 1.10,2013-02-09 03:16:00,
2013-02-09 04:31:00,44.2,27.0,30.02,NNE,33,16.0,20.0,52,0.00,,,0.00,weatherlink.com 1.10,2013-02-09 03:31:00,
2013-02-09 04:46:00,43.9,28.0,30.03,North,359,14.0,18.0,55,0.00,,,0.00,weatherlink.com 1.10,2013-02-09 03:46:00,
2013-02-09 05:01:00,43.7,30.0,30.03,NE,42,12.0,17.0,58,0.00,,,0.00,weatherlink.com 1.10,2013-02-09 04:01:00,
2013-02-09 05:17:00,43.2,30.0,30.04,NE,39,7.0,13.0,60,0.00,,,0.00,weatherlink.com 1.10,2013-02-09 04:17:00,
2013-02-09 05:32:00,42.7,30.0,30.03,North,354,7.0,15.0,60,0.00,,,0.00,weatherlink.com 1.10,2013-02-09 04:32:00,
2013-02-09 05:47:00,43.0,28.0,30.04,NNE,20,9.0,15.0,56,0.00,,,0.00,weatherlink.com 1.10,2013-02-09 04:47:00,
2013-02-09 06:02:00,43.1,28.0,30.04,NNE,15,3.0,15.0,56,0.00,,,0.00,weatherlink.com 1.10,2013-02-09 05:02:00,
2013-02-09 06:17:00,42.8,28.0,30.04,NNE,27,11.0,15.0,57,0.00,,,0.00,weatherlink.com 1.10,2013-02-09 05:17:00,
2013-02-09 06:32:00,42.5,28.0,30.05,North,1,7.0,14.0,58,0.00,,,0.00,weatherlink.com 1.10,2013-02-09 05:32:00,
2013-02-09 06:47:00,42.2,29.0,30.05,NNW,348,6.0,11.0,59,0.00,,,0.00,weatherlink.com 1.10,2013-02-09 05:47:00,
2013-02-09 07:02:00,42.4,28.0,30.06,North,11,5.0,13.0,58,0.00,,,0.00,weatherlink.com 1.10,2013-02-09 06:02:00,
2013-02-09 07:17:00,42.5,28.0,30.06,NNE,13,8.0,12.0,56,0.00,,,0.00,weatherlink.com 1.10,2013-02-09 06:17:00,
2013-02-09 07:32:00,42.6,28.0,30.06,NE,34,5.0,10.0,57,0.00,,,0.00,weatherlink.com 1.10,2013-02-09 06:32:00,
2013-02-09 07:47:00,42.6,29.0,30.07,ENE,60,8.0,16.0,59,0.00,,,0.00,weatherlink.com 1.10,2013-02-09 06:47:00,
2013-02-09 08:02:00,42.9,29.0,30.06,NNE,32,9.0,10.0,59,0.00,,,0.00,weatherlink.com 1.10,2013-02-09 07:02:00,
2013-02-09 08:17:00,43.8,29.0,30.07,NNW,329,6.0,19.0,56,0.00,,,0.00,weatherlink.com 1.10,2013-02-09 07:17:00,
2013-02-09 08:32:00,44.3,29.0,30.07,NNW,346,4.0,14.0,56,0.00,,,0.00,weatherlink.com 1.10,2013-02-09 07:32:00,
2013-02-09 08:47:00,44.9,29.0,30.08,NE,37,11.0,22.0,54,0.00,,,0.00,weatherlink.com 1.10,2013-02-09 07:47:00,
2013-02-09 09:02:00,45.3,29.0,30.09,NNW,342,5.0,19.0,54,0.00,,,0.00,weatherlink.com 1.10,2013-02-09 08:02:00,
2013-02-09 09:17:00,45.5,29.0,30.09,NNE,30,9.0,16.0,53,0.00,,,0.00,weatherlink.com 1.10,2013-02-09 08:17:00,
2013-02-09 09:32:00,46.0,29.0,30.10,NE,34,9.0,15.0,52,0.00,,,0.00,weatherlink.com 1.10,2013-02-09 08:32:00,
2013-02-09 09:47:00,46.6,29.0,30.10,NE,40,11.0,17.0,50,0.00,,,0.00,weatherlink.com 1.10,2013-02-09 08:47:00,
2013-02-09 10:02:00,46.9,29.0,30.11,North,9,10.0,24.0,50,0.00,,,0.00,weatherlink.com 1.10,2013-02-09 09:02:00,
2013-02-09 10:17:00,46.4,28.0,30.11,NNE,15,17.0,19.0,49,0.00,,,0.00,weatherlink.com 1.10,2013-02-09 09:17:00,
2013-02-09 10:32:00,46.0,27.0,30.12,NNE,18,10.0,19.0,48,0.00,,,0.00,weatherlink.com 1.10,2013-02-09 09:32:00,
2013-02-09 10:47:00,47.0,28.0,30.12,NE,47,4.0,18.0,48,0.00,,,0.00,weatherlink.com 1.10,2013-02-09 09:47:00,
2013-02-09 11:02:00,46.7,27.0,30.13,ENE,63,10.0,17.0,47,0.00,,,0.00,weatherlink.com 1.10,2013-02-09 10:02:00,
2013-02-09 11:17:00,47.0,29.0,30.14,ENE,77,6.0,16.0,49,0.00,,,0.00,weatherlink.com 1.10,2013-02-09 10:17:00,
2013-02-09 11:32:00,46.1,28.0,30.14,NE,39,8.0,19.0,49,0.00,,,0.00,weatherlink.com 1.10,2013-02-09 10:32:00,
2013-02-09 11:47:00,46.9,28.0,30.14,NNE,16,13.0,14.0,48,0.00,,,0.00,weatherlink.com 1.10,2013-02-09 10:47:00,
2013-02-09 12:02:00,46.9,27.0,30.15,NE,42,3.0,12.0,46,0.00,,,0.00,weatherlink.com 1.10,2013-02-09 11:02:00,
2013-02-09 12:17:00,46.7,28.0,30.15,NNE,30,3.0,8.0,48,0.00,,,0.00,weatherlink.com 1.10,2013-02-09 11:17:00,
2013-02-09 12:32:00,45.9,32.0,30.15,West,264,2.0,5.0,58,0.00,,,0.00,weatherlink.com 1.10,2013-02-09 11:32:00,
2013-02-09 12:47:00,46.1,32.0,30.15,West,260,5.0,7.0,59,0.00,,,0.00,weatherlink.com 1.10,2013-02-09 11:47:00,
2013-02-09 13:02:00,45.7,31.0,30.15,North,351,7.0,10.0,58,0.00,,,0.00,weatherlink.com 1.10,2013-02-09 12:02:00,
2013-02-09 13:17:00,44.7,33.0,30.15,NNW,345,5.0,10.0,63,0.00,,,0.00,weatherlink.com 1.10,2013-02-09 12:17:00,
2013-02-09 13:32:00,45.2,32.0,30.15,North,4,1.0,4.0,60,0.00,,,0.00,weatherlink.com 1.10,2013-02-09 12:32:00,
2013-02-09 13:47:00,45.6,31.0,30.15,NNE,33,2.0,4.0,58,0.00,,,0.00,weatherlink.com 1.10,2013-02-09 12:47:00,
2013-02-09 14:02:00,43.9,34.0,30.15,NE,37,10.0,16.0,69,0.00,,,0.00,weatherlink.com 1.10,2013-02-09 13:02:00,
2013-02-09 14:17:00,42.5,35.0,30.15,NNE,26,12.0,16.0,74,0.00,,,0.00,weatherlink.com 1.10,2013-02-09 13:17:00,
2013-02-09 14:32:00,43.5,35.0,30.14,NE,37,7.0,13.0,71,0.00,,,0.00,weatherlink.com 1.10,2013-02-09 13:32:00,
2013-02-09 14:47:00,43.9,34.0,30.14,ENE,64,6.0,13.0,69,0.00,,,0.00,weatherlink.com 1.10,2013-02-09 13:47:00,
2013-02-09 15:02:00,44.8,33.0,30.14,NNE,32,3.0,9.0,64,0.00,,,0.00,weatherlink.com 1.10,2013-02-09 14:02:00,
2013-02-09 15:17:00,45.6,34.0,30.14,NE,49,2.0,6.0,63,0.00,,,0.00,weatherlink.com 1.10,2013-02-09 14:17:00,
2013-02-09 15:33:00,46.5,33.0,30.14,ENE,61,2.0,9.0,60,0.00,,,0.00,weatherlink.com 1.10,2013-02-09 14:33:00,
2013-02-09 15:48:00,48.0,35.0,30.14,South,173,6.0,11.0,60,0.00,,,0.00,weatherlink.com 1.10,2013-02-09 14:48:00,
2013-02-09 16:03:00,47.2,34.0,30.14,SW,215,4.0,12.0,61,0.00,,,0.00,weatherlink.com 1.10,2013-02-09 15:03:00,
2013-02-09 16:18:00,47.0,36.0,30.14,SW,228,6.0,10.0,65,0.00,,,0.00,weatherlink.com 1.10,2013-02-09 15:18:00,
2013-02-09 16:33:00,46.5,36.0,30.14,SSW,196,2.0,8.0,67,0.00,,,0.00,weatherlink.com 1.10,2013-02-09 15:33:00,
2013-02-09 16:48:00,45.9,35.0,30.15,SW,233,8.0,9.0,66,0.00,,,0.00,weatherlink.com 1.10,2013-02-09 15:48:00,
2013-02-09 17:03:00,44.7,35.0,30.14,SSW,211,2.0,7.0,69,0.00,,,0.00,weatherlink.com 1.10,2013-02-09 16:03:00,
2013-02-09 17:18:00,44.8,36.0,30.14,SW,217,4.0,9.0,70,0.00,,,0.00,weatherlink.com 1.10,2013-02-09 16:18:00,
2013-02-09 17:33:00,44.5,36.0,30.14,South,173,1.0,7.0,72,0.00,,,0.00,weatherlink.com 1.10,2013-02-09 16:33:00,
2013-02-09 17:48:00,45.5,36.0,30.14,SW,226,3.0,8.0,70,0.00,,,0.00,weatherlink.com 1.10,2013-02-09 16:48:00,
2013-02-09 18:03:00,45.3,36.0,30.14,SSW,205,3.0,12.0,71,0.00,,,0.00,weatherlink.com 1.10,2013-02-09 17:03:00,
2013-02-09 18:18:00,44.1,36.0,30.15,West,262,1.0,6.0,73,0.00,,,0.00,weatherlink.com 1.10,2013-02-09 17:18:00,
2013-02-09 18:33:00,43.1,36.0,30.15,West,259,2.0,6.0,76,0.00,,,0.00,weatherlink.com 1.10,2013-02-09 17:33:00,
2013-02-09 18:48:00,42.7,36.0,30.15,WSW,240,5.0,6.0,78,0.00,,,0.00,weatherlink.com 1.10,2013-02-09 17:48:00,
2013-02-09 19:04:00,42.1,36.0,30.16,WSW,238,1.0,3.0,79,0.00,,,0.00,weatherlink.com 1.10,2013-02-09 18:04:00,
2013-02-09 19:18:00,41.5,36.0,30.16,SW,225,0.0,3.0,81,0.00,,,0.00,weatherlink.com 1.10,2013-02-09 18:18:00,
2013-02-09 19:33:00,41.0,36.0,30.16,SW,222,0.0,2.0,83,0.00,,,0.00,weatherlink.com 1.10,2013-02-09 18:33:00,
2013-02-09 19:48:00,40.8,36.0,30.16,WSW,248,2.0,3.0,84,0.00,,,0.00,weatherlink.com 1.10,2013-02-09 18:48:00,
2013-02-09 20:03:00,40.9,36.0,30.16,SW,235,1.0,3.0,84,0.00,,,0.00,weatherlink.com 1.10,2013-02-09 19:03:00,
2013-02-09 20:18:00,41.1,36.0,30.16,SW,219,1.0,2.0,83,0.00,,,0.00,weatherlink.com 1.10,2013-02-09 19:18:00,
2013-02-09 20:33:00,41.0,36.0,30.15,SSW,201,1.0,2.0,83,0.00,,,0.00,weatherlink.com 1.10,2013-02-09 19:33:00,
2013-02-09 20:48:00,41.0,36.0,30.15,SSW,200,0.0,2.0,83,0.00,,,0.00,weatherlink.com 1.10,2013-02-09 19:48:00,
2013-02-09 21:03:00,40.9,36.0,30.14,SW,215,1.0,2.0,84,0.00,,,0.00,weatherlink.com 1.10,2013-02-09 20:03:00,
2013-02-09 21:18:00,41.0,36.0,30.14,SW,231,1.0,3.0,83,0.00,,,0.00,weatherlink.com 1.10,2013-02-09 20:18:00,
2013-02-09 21:33:00,41.2,36.0,30.14,West,267,0.0,3.0,83,0.00,,,0.00,weatherlink.com 1.10,2013-02-09 20:33:00,
2013-02-09 21:48:00,40.5,36.0,30.14,West,280,0.0,2.0,83,0.00,,,0.00,weatherlink.com 1.10,2013-02-09 20:48:00,
2013-02-09 22:03:00,41.4,36.0,30.14,West,274,5.0,7.0,82,0.00,,,0.00,weatherlink.com 1.10,2013-02-09 21:03:00,
2013-02-09 22:18:00,42.6,36.0,30.14,West,273,3.0,7.0,77,0.00,,,0.00,weatherlink.com 1.10,2013-02-09 21:18:00,
2013-02-09 22:33:00,43.1,36.0,30.14,West,276,3.0,5.0,75,0.00,,,0.00,weatherlink.com 1.10,2013-02-09 21:33:00,
2013-02-09 22:48:00,42.9,36.0,30.14,WSW,254,2.0,4.0,75,0.00,,,0.00,weatherlink.com 1.10,2013-02-09 21:48:00,
2013-02-09 23:03:00,42.6,35.0,30.14,West,260,2.0,5.0,75,0.00,,,0.00,weatherlink.com 1.10,2013-02-09 22:03:00,
2013-02-09 23:18:00,42.7,35.0,30.13,West,262,1.0,6.0,74,0.00,,,0.00,weatherlink.com 1.10,2013-02-09 22:18:00,
2013-02-09 23:33:00,42.3,35.0,30.13,SW,229,0.0,4.0,75,0.00,,,0.00,weatherlink.com 1.10,2013-02-09 22:33:00,
2013-02-09 23:48:00,42.2,35.0,30.13,WSW,254,3.0,4.0,75,0.00,,,0.00,weatherlink.com 1.10,2013-02-09 22:48:00,